Terminal Aerodrome Forecast
Issued by NWS

Home | Current Version | Previous Version | Text Only | Print | Product List | Glossary On
Versions: 1 2 3 4 5 6 7 8 9 10 11 12
138
FTUS45 KABQ 201740
TAFLVS
TAF
KLVS 201740Z 2018/2118 23025G35KT P6SM SCT100
     FM210000 22015G25KT P6SM SCT100
     FM211500 28015G25KT P6SM FEW100=

USA.gov is the U.S. government's official web portal to all federal, state and local government web resources and services.